EPWA/WAW METAR and TAF weather

Enter ICAO airport designator
Station Type Date Time Source
EPWA METAR 2019/08/25 18:30 UTC NOAA

EPWA 251830Z 07009KT CAVOK 25/12 Q1024 NOSIG


Station Type Date Time Source
EPWA Decoded METAR 2019/08/25 18:30 UTC NOAA

Station name not available
Aug 25, 2019 - 02:30 PM EDT / 2019.08.25 1830 UTC
Wind: from the ENE (070 degrees) at 10 MPH (9 KT):0
Visibility: greater than 7 mile(s):0
Temperature: 77 F (25 C)
Dew Point: 53 F (12 C)
Relative Humidity: 44%
Pressure (altimeter): 30.24 in. Hg (1024 hPa)
ob: EPWA 251830Z 07009KT CAVOK 25/12 Q1024 NOSIG
cycle: 18

Station Type Date Time Source
EPWA TAF 2019/08/25 18:33 UTC NOAA

TAF EPWA 251730Z 2518/2618 10008KT CAVOK

Example: see airport list